createdAt,value
2017-10-17T00:01:30.734Z,90.10
2017-10-17T00:03:59.031Z,89.90
2017-10-17T00:06:27.353Z,90.10
2017-10-17T00:08:55.627Z,89.90
2017-10-17T00:11:26.013Z,89.20
2017-10-17T00:13:54.294Z,89.20
2017-10-17T00:16:23.471Z,90.00
2017-10-17T00:18:51.741Z,90.00
2017-10-17T00:21:19.981Z,90.00
2017-10-17T00:23:48.274Z,89.20
2017-10-17T00:26:16.559Z,89.20
2017-10-17T00:28:44.825Z,90.00
2017-10-17T00:31:13.682Z,90.00
2017-10-17T00:33:42.744Z,90.20
2017-10-17T00:36:18.650Z,90.20
2017-10-17T00:38:49.757Z,90.10
2017-10-17T00:41:18.052Z,90.50
2017-10-17T00:43:46.337Z,90.60
2017-10-17T00:46:17.294Z,90.50
2017-10-17T00:48:45.577Z,90.40
2017-10-17T00:51:16.200Z,90.90
2017-10-17T00:53:44.691Z,90.70
2017-10-17T00:56:13.083Z,90.90
2017-10-17T00:58:41.410Z,91.20
2017-10-17T01:01:09.707Z,91.20
2017-10-17T01:03:38.756Z,91.20
2017-10-17T01:06:07.094Z,91.20
2017-10-17T01:08:36.140Z,91.30
2017-10-17T01:11:04.442Z,91.30
2017-10-17T01:13:34.302Z,91.60
2017-10-17T01:16:03.546Z,91.60
2017-10-17T01:18:31.820Z,91.60
2017-10-17T01:21:02.781Z,91.80
2017-10-17T01:23:36.796Z,92.00
2017-10-17T01:26:10.600Z,92.10
2017-10-17T01:28:39.658Z,92.10
2017-10-17T01:31:07.939Z,92.10
2017-10-17T01:33:36.667Z,92.40
2017-10-17T01:36:05.721Z,92.20
2017-10-17T01:38:49.531Z,92.20
2017-10-17T01:41:17.801Z,92.10
2017-10-17T01:43:46.936Z,92.00
2017-10-17T01:46:18.555Z,92.40
2017-10-17T01:49:03.683Z,92.30
2017-10-17T01:51:34.736Z,92.60
2017-10-17T01:54:15.379Z,92.60
2017-10-17T01:56:43.857Z,92.70
2017-10-17T01:59:25.772Z,92.80
2017-10-17T02:01:54.042Z,92.70
2017-10-17T02:04:23.061Z,92.80
2017-10-17T02:06:51.373Z,92.80
2017-10-17T02:09:20.430Z,92.70
2017-10-17T02:11:48.715Z,92.70
2017-10-17T02:14:17.759Z,92.70
2017-10-17T02:16:46.012Z,92.70
2017-10-17T02:19:22.194Z,92.70
2017-10-17T02:21:52.425Z,92.90
2017-10-17T02:24:31.423Z,92.90
2017-10-17T02:27:01.059Z,93.00
2017-10-17T02:29:30.863Z,93.00
2017-10-17T02:31:59.300Z,93.10
2017-10-17T02:34:37.503Z,93.10
2017-10-17T02:37:06.571Z,93.20
2017-10-17T02:39:34.810Z,93.10
2017-10-17T02:42:03.859Z,93.20
2017-10-17T02:44:32.121Z,93.20
2017-10-17T02:47:01.897Z,93.20
2017-10-17T02:49:41.944Z,93.30
2017-10-17T02:55:14.955Z,93.40
2017-10-17T02:57:44.944Z,93.50
2017-10-17T03:00:16.029Z,93.50
2017-10-17T03:02:48.590Z,93.40
2017-10-17T03:05:17.749Z,93.40
2017-10-17T03:07:55.916Z,93.40
2017-10-17T03:10:25.065Z,93.80
2017-10-17T03:12:53.326Z,93.80
2017-10-17T03:15:23.476Z,94.00
2017-10-17T03:17:52.560Z,93.80
2017-10-17T03:20:21.691Z,93.80
2017-10-17T03:22:50.880Z,93.80
2017-10-17T03:25:19.158Z,93.80
2017-10-17T03:27:48.392Z,93.70
2017-10-17T03:30:16.719Z,93.80
2017-10-17T03:32:45.132Z,93.80
2017-10-17T03:35:16.131Z,93.80
2017-10-17T03:40:50.668Z,93.60
2017-10-17T03:43:43.605Z,93.80
2017-10-17T03:46:11.764Z,93.80
2017-10-17T03:48:40.520Z,93.70
2017-10-17T03:51:08.666Z,93.80
2017-10-17T03:53:46.470Z,93.70
2017-10-17T03:56:17.450Z,93.80
2017-10-17T03:58:46.034Z,93.60
2017-10-17T04:01:14.049Z,93.60
2017-10-17T04:03:45.864Z,93.40
2017-10-17T04:06:36.488Z,93.40
2017-10-17T04:09:05.254Z,93.30
2017-10-17T04:11:33.278Z,93.30
2017-10-17T04:14:13.312Z,93.30
2017-10-17T04:23:19.464Z,93.40
2017-10-17T04:25:49.845Z,93.50
2017-10-17T04:28:28.507Z,93.60
2017-10-17T04:31:03.170Z,93.80
2017-10-17T04:33:40.992Z,93.80
2017-10-17T04:36:25.602Z,93.90
2017-10-17T04:38:53.618Z,93.90
2017-10-17T04:41:23.327Z,94.00
2017-10-17T04:44:12.831Z,93.90
2017-10-17T04:46:42.426Z,94.20
2017-10-17T04:49:16.693Z,93.90
2017-10-17T04:51:56.555Z,93.90
2017-10-17T04:54:29.268Z,93.90
2017-10-17T04:57:01.078Z,93.90
2017-10-17T04:59:29.978Z,94.00
2017-10-17T05:01:59.695Z,93.90
2017-10-17T05:07:32.240Z,93.80
2017-10-17T05:10:03.546Z,93.90
2017-10-17T05:12:40.238Z,93.90
2017-10-17T05:15:09.181Z,93.90
2017-10-17T05:17:50.566Z,93.80
2017-10-17T05:20:26.193Z,93.80
2017-10-17T05:23:11.887Z,93.80
2017-10-17T05:25:40.659Z,93.80
2017-10-17T05:28:25.262Z,93.70
2017-10-17T05:30:59.979Z,93.60
2017-10-17T05:33:35.362Z,93.70
2017-10-17T05:36:03.389Z,93.70
2017-10-17T05:38:32.201Z,93.70
2017-10-17T05:41:00.230Z,93.70
2017-10-17T05:43:44.732Z,93.90
2017-10-17T05:46:12.730Z,93.70
2017-10-17T05:48:40.770Z,93.80
2017-10-17T05:51:14.715Z,93.80
2017-10-17T05:53:43.185Z,93.80
2017-10-17T05:56:11.173Z,93.80
2017-10-17T05:58:39.199Z,93.80
2017-10-17T06:01:07.230Z,93.70
2017-10-17T06:03:35.332Z,93.60
2017-10-17T06:06:04.143Z,93.80
2017-10-17T06:08:32.170Z,93.80
2017-10-17T06:11:00.191Z,93.80
2017-10-17T06:13:28.227Z,93.70
2017-10-17T06:15:57.763Z,93.80
2017-10-17T06:18:26.099Z,93.80
2017-10-17T06:20:55.322Z,93.80
2017-10-17T06:23:24.422Z,93.80
2017-10-17T06:25:52.703Z,93.80
2017-10-17T06:28:20.974Z,93.80
2017-10-17T06:30:49.498Z,93.80
2017-10-17T06:33:17.750Z,93.90
2017-10-17T06:35:46.054Z,94.00
2017-10-17T06:38:15.112Z,94.20
2017-10-17T06:40:44.936Z,94.40
2017-10-17T06:43:13.166Z,94.10
2017-10-17T06:45:41.472Z,93.90
2017-10-17T06:48:09.735Z,94.10
2017-10-17T06:50:37.994Z,94.00
2017-10-17T06:53:06.293Z,93.90
2017-10-17T06:55:34.630Z,93.90
2017-10-17T06:58:02.890Z,93.70
2017-10-17T07:00:31.138Z,93.80
2017-10-17T07:02:59.447Z,94.10
2017-10-17T07:05:27.756Z,93.90
2017-10-17T07:07:56.842Z,94.00
2017-10-17T07:10:25.178Z,94.00
2017-10-17T07:12:53.460Z,93.90
2017-10-17T07:15:21.697Z,94.00
2017-10-17T07:17:49.990Z,93.90
2017-10-17T07:20:18.280Z,93.70
2017-10-17T07:22:47.413Z,93.60
2017-10-17T07:25:15.694Z,93.40
2017-10-17T07:27:44.523Z,93.20
2017-10-17T07:30:13.625Z,93.00
2017-10-17T07:32:41.891Z,93.10
2017-10-17T07:35:10.151Z,93.00
2017-10-17T07:37:39.202Z,92.60
2017-10-17T07:40:07.468Z,92.60
2017-10-17T07:42:35.743Z,92.90
2017-10-17T07:45:04.048Z,92.90
2017-10-17T07:47:33.058Z,92.90
2017-10-17T07:50:01.327Z,92.80
2017-10-17T07:52:29.561Z,92.90
2017-10-17T07:54:57.823Z,92.70
2017-10-17T07:57:26.100Z,92.60
2017-10-17T07:59:54.382Z,92.60
2017-10-17T08:02:23.421Z,92.40
2017-10-17T08:04:51.713Z,92.40
2017-10-17T08:07:20.005Z,92.50
2017-10-17T08:09:48.299Z,92.30
2017-10-17T08:12:16.678Z,92.20
2017-10-17T08:14:44.972Z,92.00
2017-10-17T08:17:13.210Z,92.10
2017-10-17T08:19:42.272Z,91.80
2017-10-17T08:22:11.124Z,91.80
2017-10-17T08:24:39.411Z,91.80
2017-10-17T08:27:07.674Z,91.70
2017-10-17T08:29:36.601Z,92.10
2017-10-17T08:32:04.845Z,92.00
2017-10-17T08:34:33.119Z,91.90
2017-10-17T08:37:03.050Z,91.60
2017-10-17T08:39:32.288Z,91.60
2017-10-17T08:42:00.591Z,91.50
2017-10-17T08:44:28.843Z,91.50
2017-10-17T08:46:57.111Z,91.40
2017-10-17T08:49:25.816Z,91.10
2017-10-17T08:51:54.121Z,91.10
2017-10-17T08:54:22.406Z,90.90
2017-10-17T08:56:51.453Z,90.80
2017-10-17T08:59:19.739Z,90.80
2017-10-17T09:01:48.230Z,91.10
2017-10-17T09:04:17.087Z,91.20
2017-10-17T09:06:45.355Z,90.90
2017-10-17T09:09:14.454Z,90.80
2017-10-17T09:11:43.443Z,90.60
2017-10-17T09:14:11.710Z,90.60
2017-10-17T09:16:40.001Z,90.60
2017-10-17T09:19:09.670Z,90.60
2017-10-17T09:21:37.905Z,90.40
2017-10-17T09:24:06.535Z,90.40
2017-10-17T09:26:34.796Z,90.50
2017-10-17T09:29:03.185Z,90.30
2017-10-17T09:31:34.257Z,90.60
2017-10-17T09:34:04.027Z,90.50
2017-10-17T09:36:33.893Z,90.40
2017-10-17T09:39:03.101Z,90.10
2017-10-17T09:41:32.967Z,90.00
2017-10-17T09:44:03.297Z,90.10
2017-10-17T09:46:32.509Z,90.10
2017-10-17T09:49:01.472Z,90.00
2017-10-17T09:51:31.941Z,90.00
2017-10-17T09:54:00.559Z,90.00
2017-10-17T09:56:29.399Z,90.40
2017-10-17T09:58:57.630Z,89.10
2017-10-17T10:01:25.915Z,89.10
2017-10-17T10:03:55.007Z,89.20
2017-10-17T10:06:23.299Z,89.80
2017-10-17T10:08:51.581Z,88.80
2017-10-17T10:11:19.839Z,88.10
2017-10-17T10:13:49.005Z,88.50
2017-10-17T10:16:17.287Z,88.10
2017-10-17T10:18:45.578Z,88.50
2017-10-17T10:21:13.936Z,88.30
2017-10-17T10:23:43.730Z,88.20
2017-10-17T10:26:12.771Z,87.50
2017-10-17T10:28:41.090Z,87.50
2017-10-17T10:31:10.447Z,88.00
2017-10-17T10:33:38.694Z,87.80
2017-10-17T10:36:07.753Z,86.30
2017-10-17T10:38:36.894Z,86.20
2017-10-17T10:41:05.198Z,86.60
2017-10-17T10:43:33.447Z,86.80
2017-10-17T10:46:03.261Z,87.10
2017-10-17T10:48:32.307Z,87.40
2017-10-17T10:51:00.625Z,87.30
2017-10-17T10:53:29.626Z,86.50
2017-10-17T10:55:58.704Z,86.30
2017-10-17T10:58:27.003Z,86.10
2017-10-17T11:00:56.037Z,86.00
2017-10-17T11:03:24.304Z,85.90
2017-10-17T11:05:52.591Z,84.60
2017-10-17T11:08:20.863Z,83.90
2017-10-17T11:10:49.199Z,84.00
2017-10-17T11:13:18.213Z,84.60
2017-10-17T11:15:47.230Z,84.80
2017-10-17T11:18:15.498Z,85.20
2017-10-17T11:20:43.787Z,84.30
2017-10-17T11:23:12.125Z,84.30
2017-10-17T11:25:41.141Z,84.50
2017-10-17T11:28:09.399Z,84.50
2017-10-17T11:30:37.782Z,83.90
2017-10-17T11:33:06.098Z,84.00
2017-10-17T11:35:34.387Z,83.90
2017-10-17T11:38:02.666Z,84.00
2017-10-17T11:40:42.908Z,84.00
2017-10-17T11:43:24.060Z,84.70
2017-10-17T11:45:52.348Z,85.00
2017-10-17T11:48:20.632Z,84.40
2017-10-17T11:50:49.000Z,84.60
2017-10-17T11:53:17.268Z,84.40
2017-10-17T11:55:47.211Z,84.80
2017-10-17T11:58:15.500Z,84.70
2017-10-17T12:00:43.865Z,84.60
2017-10-17T12:03:13.131Z,84.40
2017-10-17T12:05:41.418Z,84.70
2017-10-17T12:08:10.471Z,84.60
2017-10-17T12:10:38.782Z,84.60
2017-10-17T12:13:07.974Z,84.50
2017-10-17T12:15:37.047Z,83.60
2017-10-17T12:18:05.296Z,84.10
2017-10-17T12:20:33.550Z,82.90
2017-10-17T12:23:01.862Z,83.20
2017-10-17T12:25:30.148Z,84.50
2017-10-17T12:27:58.432Z,83.60
2017-10-17T12:30:26.672Z,84.20
2017-10-17T12:32:54.973Z,83.40
2017-10-17T12:35:23.240Z,83.70
2017-10-17T12:37:52.380Z,83.70
2017-10-17T12:40:20.675Z,83.30
2017-10-17T12:42:49.678Z,82.90
2017-10-17T12:45:19.270Z,83.10
2017-10-17T12:47:47.551Z,83.00
2017-10-17T12:50:15.823Z,83.60
2017-10-17T12:52:44.119Z,83.90
2017-10-17T12:55:12.429Z,83.20
2017-10-17T12:57:40.734Z,83.60
2017-10-17T13:00:09.255Z,84.60
2017-10-17T13:02:37.633Z,84.30
2017-10-17T13:05:05.999Z,84.10
2017-10-17T13:07:34.283Z,83.80
2017-10-17T13:10:03.352Z,82.40
2017-10-17T13:12:31.599Z,82.40
2017-10-17T13:14:59.870Z,82.90
2017-10-17T13:17:29.241Z,82.40
2017-10-17T13:19:58.863Z,83.00
2017-10-17T13:22:27.140Z,82.30
2017-10-17T13:24:55.399Z,82.10
2017-10-17T13:27:24.471Z,82.20
2017-10-17T13:29:52.746Z,82.20
2017-10-17T13:32:22.008Z,82.60
2017-10-17T13:34:50.686Z,82.60
2017-10-17T13:37:19.633Z,83.10
2017-10-17T13:39:51.008Z,82.90
2017-10-17T13:42:20.285Z,82.90
2017-10-17T13:44:50.282Z,83.00
2017-10-17T13:47:21.062Z,83.30
2017-10-17T13:49:51.143Z,83.50
2017-10-17T13:52:19.427Z,83.50
2017-10-17T13:54:47.684Z,83.80
2017-10-17T13:57:16.817Z,84.10
2017-10-17T13:59:45.081Z,83.80
2017-10-17T14:02:13.782Z,84.10
2017-10-17T14:04:43.532Z,83.30
2017-10-17T14:07:12.341Z,83.30
2017-10-17T14:09:40.776Z,83.30
2017-10-17T14:12:10.987Z,84.10
2017-10-17T14:14:40.021Z,83.80
2017-10-17T14:17:09.259Z,83.70
2017-10-17T14:19:38.379Z,83.80
2017-10-17T14:22:07.236Z,84.30
2017-10-17T14:24:35.521Z,85.80
2017-10-17T14:27:03.861Z,86.50
2017-10-17T14:29:32.571Z,86.50
2017-10-17T14:32:00.872Z,87.20
2017-10-17T14:34:29.133Z,87.80
2017-10-17T14:36:58.360Z,88.00
2017-10-17T14:39:26.898Z,88.50
2017-10-17T14:41:55.229Z,88.90
2017-10-17T14:44:23.461Z,89.60
2017-10-17T14:46:51.756Z,90.00
2017-10-17T14:49:20.048Z,89.90
2017-10-17T14:51:49.511Z,89.80
2017-10-17T14:54:17.805Z,90.00
2017-10-17T14:56:49.621Z,90.20
2017-10-17T14:59:19.298Z,90.70
2017-10-17T15:01:48.304Z,90.70
2017-10-17T15:04:20.430Z,90.20
2017-10-17T15:06:49.694Z,90.20
2017-10-17T15:09:18.284Z,90.40
2017-10-17T15:11:47.331Z,91.30
2017-10-17T15:14:15.612Z,91.30
2017-10-17T15:16:44.531Z,91.60
2017-10-17T15:19:13.589Z,91.60
2017-10-17T15:21:42.178Z,91.40
2017-10-17T15:24:11.646Z,91.80
2017-10-17T15:26:40.826Z,92.40
2017-10-17T15:29:10.941Z,92.20
2017-10-17T15:31:39.275Z,92.20
2017-10-17T15:34:07.589Z,92.30
2017-10-17T15:36:35.814Z,92.50
2017-10-17T15:39:04.141Z,92.20
2017-10-17T15:41:32.415Z,92.20
2017-10-17T15:44:01.952Z,92.30
2017-10-17T15:46:30.991Z,92.50
2017-10-17T15:48:59.275Z,92.40
2017-10-17T15:51:29.932Z,92.80
2017-10-17T15:53:58.969Z,93.10
2017-10-17T15:56:27.268Z,92.80
2017-10-17T15:58:55.537Z,93.10
2017-10-17T16:01:23.817Z,93.10
2017-10-17T16:03:52.187Z,93.00
2017-10-17T16:06:20.476Z,92.90
2017-10-17T16:08:49.582Z,92.90
2017-10-17T16:11:18.807Z,93.20
2017-10-17T16:13:48.461Z,93.50
2017-10-17T16:16:16.759Z,93.30
2017-10-17T16:18:45.763Z,93.60
2017-10-17T16:21:14.041Z,93.90
2017-10-17T16:23:44.210Z,94.00
2017-10-17T16:26:13.406Z,94.20
2017-10-17T16:28:43.310Z,94.10
2017-10-17T16:31:11.661Z,94.10
2017-10-17T16:33:39.951Z,94.00
2017-10-17T16:36:09.233Z,94.00
2017-10-17T16:38:37.595Z,94.10
2017-10-17T16:41:06.392Z,94.40
2017-10-17T16:43:35.490Z,94.60
2017-10-17T16:46:03.778Z,94.80
2017-10-17T16:48:32.196Z,95.30
2017-10-17T16:51:00.445Z,95.30
2017-10-17T16:53:28.702Z,95.00
2017-10-17T16:55:57.068Z,94.90
2017-10-17T16:58:25.372Z,94.90
2017-10-17T17:00:53.774Z,94.90
2017-10-17T17:03:23.010Z,94.90
2017-10-17T17:05:53.431Z,95.00
2017-10-17T17:08:22.459Z,95.10
2017-10-17T17:10:50.761Z,95.10
2017-10-17T17:13:19.056Z,95.20
2017-10-17T17:15:47.321Z,95.30
2017-10-17T17:18:16.405Z,96.00
2017-10-17T17:20:44.744Z,96.00
2017-10-17T17:23:13.213Z,96.20
2017-10-17T17:25:42.708Z,96.00
2017-10-17T17:28:11.139Z,96.00
2017-10-17T17:30:40.548Z,95.70
2017-10-17T17:33:08.808Z,95.70
2017-10-17T17:35:38.330Z,96.00
2017-10-17T17:38:06.598Z,96.10
2017-10-17T17:40:35.918Z,96.10
2017-10-17T17:43:04.674Z,95.80
2017-10-17T17:45:34.279Z,95.80
2017-10-17T17:48:02.592Z,95.80
2017-10-17T17:50:33.923Z,95.70
2017-10-17T17:53:02.693Z,95.90
2017-10-17T17:55:32.001Z,95.40
2017-10-17T17:58:01.037Z,95.70
2017-10-17T18:00:29.364Z,95.70
2017-10-17T18:02:58.521Z,95.70
2017-10-17T18:05:27.433Z,95.70
2017-10-17T18:07:56.309Z,95.80
2017-10-17T18:10:26.462Z,96.20
2017-10-17T18:12:55.528Z,96.20
2017-10-17T18:15:24.722Z,96.10
2017-10-17T18:17:53.121Z,95.80
2017-10-17T18:20:21.435Z,95.90
2017-10-17T18:22:50.018Z,95.90
2017-10-17T18:25:19.273Z,95.90
2017-10-17T18:27:47.665Z,95.80
2017-10-17T18:30:16.722Z,95.70
2017-10-17T18:32:45.062Z,95.70
2017-10-17T18:35:14.417Z,95.50
2017-10-17T18:37:43.426Z,95.40
2017-10-17T18:40:12.540Z,95.50
2017-10-17T18:42:42.153Z,96.00
2017-10-17T18:45:11.440Z,96.10
2017-10-17T18:47:41.458Z,96.10
2017-10-17T18:50:10.731Z,95.90
2017-10-17T18:52:39.152Z,96.00
2017-10-17T18:55:07.522Z,95.70
2017-10-17T18:57:37.481Z,95.50
2017-10-17T19:00:06.715Z,95.40
2017-10-17T19:02:35.037Z,95.70
2017-10-17T19:05:04.998Z,95.70
2017-10-17T19:07:33.889Z,95.70
2017-10-17T19:10:02.231Z,95.40
2017-10-17T19:12:31.986Z,95.50
2017-10-17T19:15:03.151Z,95.50
2017-10-17T19:17:31.453Z,96.00
2017-10-17T19:20:01.805Z,96.10
2017-10-17T19:22:30.200Z,96.30
2017-10-17T19:24:59.596Z,96.30
2017-10-17T19:27:27.872Z,95.90
2017-10-17T19:29:57.133Z,95.70
2017-10-17T19:32:26.546Z,95.50
2017-10-17T19:34:56.179Z,95.50
2017-10-17T19:37:24.624Z,95.50
2017-10-17T19:39:52.858Z,95.50
2017-10-17T19:42:21.902Z,95.40
2017-10-17T19:44:50.184Z,95.10
2017-10-17T19:47:19.340Z,95.80
2017-10-17T19:49:48.448Z,95.50
2017-10-17T19:52:17.358Z,95.60
2017-10-17T19:54:46.425Z,95.90
2017-10-17T19:57:14.890Z,96.00
2017-10-17T19:59:43.800Z,96.10
2017-10-17T20:02:12.075Z,95.90
2017-10-17T20:04:41.274Z,95.60
2017-10-17T20:07:09.615Z,95.50
2017-10-17T20:09:38.711Z,95.60
2017-10-17T20:12:07.436Z,95.60
2017-10-17T20:14:36.531Z,95.70
2017-10-17T20:17:05.900Z,95.70
2017-10-17T20:19:35.065Z,95.80
2017-10-17T20:22:04.119Z,95.80
2017-10-17T20:24:32.394Z,95.50
2017-10-17T20:27:00.719Z,95.60
2017-10-17T20:29:29.066Z,95.70
2017-10-17T20:31:57.384Z,95.80
2017-10-17T20:34:26.797Z,95.70
2017-10-17T20:36:55.171Z,95.60
2017-10-17T20:39:25.091Z,95.90
2017-10-17T20:41:54.478Z,95.90
2017-10-17T20:44:22.732Z,95.90
2017-10-17T20:46:50.987Z,95.70
2017-10-17T20:49:19.311Z,95.70
2017-10-17T20:51:47.797Z,95.60
2017-10-17T20:54:17.308Z,95.80
2017-10-17T20:56:45.802Z,95.60
2017-10-17T20:59:15.552Z,96.00
2017-10-17T21:01:44.623Z,96.00
2017-10-17T21:04:12.908Z,96.00
2017-10-17T21:06:41.910Z,95.70
2017-10-17T21:09:10.239Z,95.70
2017-10-17T21:11:39.355Z,95.80
2017-10-17T21:14:07.691Z,96.00
2017-10-17T21:16:36.981Z,96.10
2017-10-17T21:19:05.704Z,96.10
2017-10-17T21:21:35.502Z,96.00
2017-10-17T21:24:03.772Z,96.00
2017-10-17T21:26:32.026Z,95.90
2017-10-17T21:29:00.306Z,96.30
2017-10-17T21:31:28.731Z,96.30
2017-10-17T21:33:58.448Z,96.40
2017-10-17T21:36:27.095Z,96.50
2017-10-17T21:38:55.368Z,96.60
2017-10-17T21:41:23.991Z,96.70
2017-10-17T21:43:53.150Z,96.60
2017-10-17T21:46:21.723Z,96.60
2017-10-17T21:48:50.045Z,96.60
2017-10-17T21:51:19.016Z,96.30
2017-10-17T21:53:47.414Z,96.10
2017-10-17T21:56:15.706Z,96.10
2017-10-17T21:58:43.972Z,96.30
2017-10-17T22:01:13.249Z,96.10
2017-10-17T22:03:41.559Z,96.40
2017-10-17T22:06:11.389Z,96.50
2017-10-17T22:08:39.651Z,96.50
2017-10-17T22:11:07.921Z,96.10
2017-10-17T22:13:37.429Z,96.30
2017-10-17T22:16:06.519Z,96.30
2017-10-17T22:18:37.168Z,96.20
2017-10-17T22:21:06.825Z,96.40
2017-10-17T22:23:36.387Z,96.40
2017-10-17T22:26:05.999Z,96.80
2017-10-17T22:28:35.934Z,96.80
2017-10-17T22:31:04.973Z,96.70
2017-10-17T22:33:35.552Z,96.50
2017-10-17T22:36:05.859Z,96.70
2017-10-17T22:38:34.686Z,96.70
2017-10-17T22:41:02.959Z,96.80
2017-10-17T22:43:32.042Z,97.00
2017-10-17T22:46:02.062Z,97.10
2017-10-17T22:48:30.321Z,97.10
2017-10-17T22:50:58.576Z,97.10
2017-10-17T22:53:28.438Z,97.10
2017-10-17T22:55:57.329Z,97.00
2017-10-17T22:58:26.545Z,97.00
2017-10-17T23:00:55.315Z,97.10
2017-10-17T23:03:23.579Z,97.20
2017-10-17T23:05:53.184Z,97.20
2017-10-17T23:08:22.519Z,97.10
2017-10-17T23:10:50.955Z,97.10
2017-10-17T23:13:19.182Z,97.20
2017-10-17T23:15:47.440Z,97.20
2017-10-17T23:18:27.873Z,97.30
2017-10-17T23:20:58.173Z,97.20
2017-10-17T23:23:26.453Z,97.20
2017-10-17T23:25:55.339Z,97.30
2017-10-17T23:28:24.294Z,97.30
2017-10-17T23:30:53.867Z,97.40
2017-10-17T23:33:23.099Z,97.40
2017-10-17T23:35:52.104Z,97.30
2017-10-17T23:38:20.393Z,97.30
2017-10-17T23:40:50.374Z,97.10
2017-10-17T23:43:18.615Z,97.00
2017-10-17T23:45:46.982Z,97.10
2017-10-17T23:48:15.888Z,97.10
2017-10-17T23:50:45.502Z,97.10
2017-10-17T23:53:14.467Z,97.20
2017-10-17T23:55:42.712Z,97.10
2017-10-17T23:58:11.759Z,96.90
